createdAt,value
2023-03-08T00:00:22.076Z,70.495605
2023-03-08T00:01:31.786Z,70.495605
2023-03-08T00:02:40.444Z,70.391846
2023-03-08T00:03:49.190Z,70.703125
2023-03-08T00:04:58.825Z,70.495605
2023-03-08T00:06:07.448Z,70.391846
2023-03-08T00:07:17.098Z,70.495605
2023-03-08T00:08:25.798Z,70.288086
2023-03-08T00:09:33.431Z,70.495605
2023-03-08T00:10:44.158Z,70.495605
2023-03-08T00:11:52.819Z,70.318604
2023-03-08T00:13:01.477Z,70.288086
2023-03-08T00:14:11.205Z,70.288086
2023-03-08T00:15:19.858Z,70.422363
2023-03-08T00:16:27.564Z,70.526123
2023-03-08T00:17:37.202Z,70.733643
2023-03-08T00:18:46.861Z,70.526123
2023-03-08T00:19:55.553Z,70.526123
2023-03-08T00:21:04.217Z,70.629883
2023-03-08T00:22:13.945Z,70.526123
2023-03-08T00:23:23.546Z,70.526123
2023-03-08T00:24:32.274Z,70.629883
2023-03-08T00:25:41.947Z,70.526123
2023-03-08T00:26:51.633Z,70.318604
2023-03-08T00:28:01.302Z,70.526123
2023-03-08T00:29:11.056Z,70.422363
2023-03-08T00:30:19.720Z,70.422363
2023-03-08T00:31:29.417Z,70.422363
2023-03-08T00:32:39.138Z,70.422363
2023-03-08T00:33:46.775Z,70.629883
2023-03-08T00:34:55.538Z,70.76416
2023-03-08T00:36:05.316Z,70.76416
2023-03-08T00:37:14.024Z,70.86792
2023-03-08T00:38:23.745Z,70.97168
2023-03-08T00:39:33.362Z,71.075439
2023-03-08T00:40:43.072Z,71.075439
2023-03-08T00:41:52.755Z,71.179199
2023-03-08T00:43:00.438Z,71.282959
2023-03-08T00:44:08.107Z,71.179199
2023-03-08T00:45:17.779Z,71.075439
2023-03-08T00:46:26.526Z,71.008301
2023-03-08T00:47:36.107Z,71.075439
2023-03-08T00:48:46.830Z,70.97168
2023-03-08T00:49:56.520Z,70.76416
2023-03-08T00:51:06.190Z,70.666504
2023-03-08T00:52:14.900Z,70.666504
2023-03-08T00:53:23.552Z,70.666504
2023-03-08T00:54:33.237Z,70.562744
2023-03-08T00:55:42.946Z,70.666504
2023-03-08T00:56:51.602Z,70.666504
2023-03-08T00:57:59.252Z,70.562744
2023-03-08T00:59:08.919Z,70.562744
2023-03-08T01:00:18.647Z,70.562744
2023-03-08T01:01:28.304Z,70.251465
2023-03-08T01:02:37.966Z,70.355225
2023-03-08T01:03:47.663Z,70.355225
2023-03-08T01:04:57.394Z,70.147705
2023-03-08T01:06:06.076Z,70.043945
2023-03-08T01:07:15.732Z,70.043945
2023-03-08T01:08:24.422Z,70.043945
2023-03-08T01:09:34.091Z,70.043945
2023-03-08T01:10:42.799Z,70.043945
2023-03-08T01:11:51.429Z,70.147705
2023-03-08T01:13:01.089Z,70.251465
2023-03-08T01:14:10.767Z,70.043945
2023-03-08T01:15:19.440Z,70.147705
2023-03-08T01:16:28.186Z,70.043945
2023-03-08T01:17:37.840Z,70.251465
2023-03-08T01:18:47.504Z,70.251465
2023-03-08T01:19:56.170Z,70.251465
2023-03-08T01:21:04.859Z,70.281982
2023-03-08T01:22:14.512Z,70.385742
2023-03-08T01:23:23.157Z,70.489502
2023-03-08T01:24:31.835Z,70.385742
2023-03-08T01:25:40.548Z,70.800781
2023-03-08T01:26:50.253Z,70.593262
2023-03-08T01:27:59.889Z,70.489502
2023-03-08T01:29:07.591Z,70.593262
2023-03-08T01:30:15.237Z,70.697021
2023-03-08T01:31:24.996Z,70.727539
2023-03-08T01:32:33.633Z,70.935059
2023-03-08T01:33:42.269Z,71.142578
2023-03-08T01:34:49.915Z,71.246338
2023-03-08T01:35:59.676Z,71.246338
2023-03-08T01:37:09.311Z,71.246338
2023-03-08T01:38:17.969Z,71.350098
2023-03-08T01:39:25.619Z,71.453857
2023-03-08T01:40:35.290Z,71.557617
2023-03-08T01:41:45.000Z,71.697998
2023-03-08T01:42:53.713Z,71.801758
2023-03-08T01:44:02.327Z,71.905518
2023-03-08T01:45:12.026Z,72.009277
2023-03-08T01:46:21.715Z,72.113037
2023-03-08T01:47:29.376Z,72.216797
2023-03-08T01:48:38.044Z,72.320557
2023-03-08T01:49:47.712Z,72.424316
2023-03-08T01:50:57.409Z,72.424316
2023-03-08T01:52:06.083Z,72.424316
2023-03-08T01:53:14.741Z,72.424316
2023-03-08T01:54:24.387Z,72.424316
2023-03-08T01:55:34.061Z,72.631836
2023-03-08T01:56:41.777Z,72.631836
2023-03-08T01:57:49.443Z,72.766113
2023-03-08T01:58:59.146Z,72.766113
2023-03-08T02:00:07.772Z,72.735596
2023-03-08T02:01:16.525Z,72.735596
2023-03-08T02:02:28.312Z,72.973633
2023-03-08T02:03:34.784Z,73.077393
2023-03-08T02:04:44.457Z,73.284912
2023-03-08T02:05:53.127Z,73.284912
2023-03-08T02:07:01.879Z,73.284912
2023-03-08T02:08:10.543Z,73.388672
2023-03-08T02:09:19.203Z,73.388672
2023-03-08T02:10:27.877Z,73.492432
2023-03-08T02:11:37.629Z,73.699951
2023-03-08T02:12:46.299Z,73.699951
2023-03-08T02:13:53.962Z,73.699951
2023-03-08T02:15:03.715Z,73.699951
2023-03-08T02:16:13.355Z,73.699951
2023-03-08T02:17:22.031Z,73.699951
2023-03-08T02:18:30.697Z,73.803711
2023-03-08T02:19:39.366Z,73.907471
2023-03-08T02:20:49.064Z,74.047852
2023-03-08T02:21:58.047Z,74.151611
2023-03-08T02:23:06.730Z,74.255371
2023-03-08T02:24:16.398Z,74.359131
2023-03-08T02:25:26.077Z,74.359131
2023-03-08T02:26:34.760Z,74.462891
2023-03-08T02:27:44.448Z,74.462891
2023-03-08T02:28:53.111Z,74.56665
2023-03-08T02:30:02.826Z,74.77417
2023-03-08T02:31:11.553Z,74.981689
2023-03-08T02:32:20.245Z,75.012207
2023-03-08T02:33:29.863Z,75.012207
2023-03-08T02:34:39.560Z,74.981689
2023-03-08T02:35:49.264Z,74.981689
2023-03-08T02:36:59.073Z,74.981689
2023-03-08T02:38:07.835Z,75.115967
2023-03-08T02:39:16.524Z,75.115967
2023-03-08T02:40:25.239Z,75.219727
2023-03-08T02:41:32.902Z,75.219727
2023-03-08T02:42:41.572Z,75.323486
2023-03-08T02:43:51.256Z,75.323486
2023-03-08T02:45:00.914Z,75.323486
2023-03-08T02:46:09.596Z,75.43335
2023-03-08T02:47:19.311Z,75.537109
2023-03-08T02:48:29.005Z,75.640869
2023-03-08T02:49:36.696Z,75.848389
2023-03-08T02:50:45.366Z,75.848389
2023-03-08T02:51:55.053Z,76.055908
2023-03-08T02:53:03.728Z,76.190186
2023-03-08T02:54:15.374Z,76.190186
2023-03-08T02:55:23.059Z,76.293945
2023-03-08T02:56:31.755Z,76.293945
2023-03-08T02:57:41.429Z,76.397705
2023-03-08T02:58:49.112Z,76.397705
2023-03-08T02:59:57.798Z,76.507568
2023-03-08T03:01:07.534Z,76.611328
2023-03-08T03:02:16.216Z,76.715088
2023-03-08T03:03:24.918Z,76.818848
2023-03-08T03:04:34.573Z,76.922607
2023-03-08T03:05:44.242Z,76.922607
2023-03-08T03:06:53.964Z,77.160645
2023-03-08T03:08:02.625Z,77.270508
2023-03-08T03:09:12.293Z,77.374268
2023-03-08T03:10:21.974Z,77.478027
2023-03-08T03:11:30.642Z,77.581787
2023-03-08T03:12:39.423Z,77.685547
2023-03-08T03:14:04.921Z,77.789307
2023-03-08T03:15:14.426Z,77.893066
2023-03-08T03:16:22.087Z,77.893066
2023-03-08T03:17:30.752Z,77.996826
2023-03-08T03:18:40.444Z,77.996826
2023-03-08T03:19:50.090Z,78.137207
2023-03-08T03:20:59.797Z,78.240967
2023-03-08T03:22:08.503Z,78.656006
2023-03-08T03:23:17.203Z,78.759766
2023-03-08T03:24:26.896Z,78.656006
2023-03-08T03:25:35.627Z,78.759766
2023-03-08T03:26:43.321Z,78.863525
2023-03-08T03:27:53.028Z,78.759766
2023-03-08T03:29:01.698Z,78.759766
2023-03-08T03:30:11.374Z,78.759766
2023-03-08T03:35:46.735Z,78.863525
2023-03-08T03:36:56.395Z,78.759766
2023-03-08T03:38:06.084Z,78.759766
2023-03-08T03:39:15.853Z,78.759766
2023-03-08T03:40:24.504Z,78.759766
2023-03-08T03:41:33.165Z,78.863525
2023-03-08T03:42:41.856Z,78.967285
2023-03-08T03:43:51.530Z,79.071045
2023-03-08T03:45:00.285Z,79.071045
2023-03-08T03:46:08.969Z,79.174805
2023-03-08T03:47:18.662Z,79.174805
2023-03-08T03:48:28.350Z,79.174805
2023-03-08T03:49:37.024Z,79.278564
2023-03-08T03:50:46.722Z,79.174805
2023-03-08T03:51:55.410Z,79.211426
2023-03-08T03:53:04.085Z,79.418945
2023-03-08T03:54:13.757Z,79.522705
2023-03-08T03:55:23.433Z,79.522705
2023-03-08T03:56:33.112Z,79.418945
2023-03-08T03:57:40.799Z,79.418945
2023-03-08T03:58:48.465Z,79.418945
2023-03-08T03:59:58.167Z,79.522705
2023-03-08T04:01:06.832Z,79.626465
2023-03-08T04:02:15.538Z,79.730225
2023-03-08T04:03:24.372Z,79.730225
2023-03-08T04:04:32.891Z,79.833984
2023-03-08T04:05:42.584Z,79.833984
2023-03-08T04:06:51.262Z,80.151367
2023-03-08T04:07:59.987Z,80.255127
2023-03-08T04:09:09.623Z,80.395508
2023-03-08T04:10:19.367Z,80.603027
2023-03-08T04:11:28.064Z,80.810547
2023-03-08T04:12:36.704Z,80.810547
2023-03-08T04:13:45.407Z,81.018066
2023-03-08T04:14:55.111Z,81.121826
2023-03-08T04:16:04.807Z,81.121826
2023-03-08T04:17:14.466Z,81.018066
2023-03-08T04:18:24.164Z,80.914307
2023-03-08T04:19:32.823Z,80.810547
2023-03-08T04:20:42.519Z,80.914307
2023-03-08T04:21:52.183Z,81.018066
2023-03-08T04:23:01.875Z,81.018066
2023-03-08T04:24:10.574Z,81.121826
2023-03-08T04:25:20.245Z,81.121826
2023-03-08T04:26:29.979Z,81.121826
2023-03-08T04:27:38.669Z,81.121826
2023-03-08T04:28:46.335Z,81.188965
2023-03-08T04:29:57.033Z,81.225586
2023-03-08T04:31:06.730Z,81.225586
2023-03-08T04:32:15.383Z,81.225586
2023-03-08T04:33:24.076Z,81.329346
2023-03-08T04:34:33.723Z,81.329346
2023-03-08T04:35:43.460Z,81.433105
2023-03-08T04:36:51.079Z,81.396484
2023-03-08T04:37:59.752Z,81.292725
2023-03-08T04:39:09.475Z,81.292725
2023-03-08T04:40:19.178Z,81.292725
2023-03-08T04:41:28.818Z,81.292725
2023-03-08T04:42:37.493Z,81.396484
2023-03-08T04:43:47.196Z,81.292725
2023-03-08T04:44:56.897Z,81.292725
2023-03-08T04:46:04.599Z,81.085205
2023-03-08T04:47:13.249Z,80.981445
2023-03-08T04:48:24.785Z,80.841064
2023-03-08T04:49:32.624Z,80.529785
2023-03-08T04:50:42.316Z,80.218506
2023-03-08T04:51:49.992Z,80.114746
2023-03-08T04:52:59.656Z,79.974365
2023-03-08T04:54:09.362Z,79.974365
2023-03-08T04:55:18.032Z,79.907227
2023-03-08T04:56:25.791Z,79.797363
2023-03-08T04:57:35.453Z,79.907227
2023-03-08T04:58:45.129Z,80.010986
2023-03-08T04:59:54.823Z,80.218506
2023-03-08T05:01:04.499Z,80.322266
2023-03-08T05:02:13.239Z,80.426025
2023-03-08T05:03:22.844Z,80.633545
2023-03-08T05:04:31.560Z,80.737305
2023-03-08T05:05:39.216Z,80.841064
2023-03-08T05:06:48.910Z,80.841064
2023-03-08T05:07:57.627Z,80.944824
2023-03-08T05:09:06.328Z,80.944824
2023-03-08T05:10:15.011Z,80.944824
2023-03-08T05:11:23.668Z,81.048584
2023-03-08T05:12:33.417Z,81.048584
2023-03-08T05:13:42.064Z,80.944824
2023-03-08T05:14:49.756Z,80.944824
2023-03-08T05:15:59.486Z,80.944824
2023-03-08T05:17:08.128Z,81.048584
2023-03-08T05:18:16.835Z,81.256104
2023-03-08T05:19:25.514Z,81.256104
2023-03-08T05:20:35.185Z,81.323242
2023-03-08T05:21:44.956Z,81.219482
2023-03-08T05:22:58.800Z,81.323242
2023-03-08T05:24:02.272Z,81.945801
2023-03-08T05:25:11.999Z,81.842041
2023-03-08T05:26:21.682Z,81.945801
2023-03-08T05:27:31.379Z,81.671143
2023-03-08T05:28:41.071Z,82.086182
2023-03-08T05:29:50.747Z,81.982422
2023-03-08T05:31:00.472Z,81.982422
2023-03-08T05:32:09.193Z,81.878662
2023-03-08T05:33:16.810Z,82.086182
2023-03-08T05:34:26.486Z,82.196045
2023-03-08T05:35:35.254Z,82.403564
2023-03-08T05:36:43.893Z,82.611084
2023-03-08T05:37:52.550Z,82.818604
2023-03-08T05:39:01.218Z,82.922363
2023-03-08T05:40:10.923Z,83.129883
2023-03-08T05:41:18.593Z,82.818604
2023-03-08T05:42:28.290Z,82.855225
2023-03-08T05:43:37.978Z,83.166504
2023-03-08T05:44:47.732Z,83.062744
2023-03-08T05:45:56.684Z,83.166504
2023-03-08T05:47:06.329Z,83.166504
2023-03-08T05:48:16.844Z,83.374023
2023-03-08T05:49:26.523Z,83.581543
2023-03-08T05:50:36.206Z,83.685303
2023-03-08T05:51:44.868Z,83.795166
2023-03-08T05:52:54.540Z,83.898926
2023-03-08T05:54:04.197Z,84.143066
2023-03-08T05:55:12.870Z,84.143066
2023-03-08T05:56:21.555Z,84.210205
2023-03-08T05:57:31.218Z,84.210205
2023-03-08T05:58:42.032Z,84.417725
2023-03-08T05:59:50.566Z,84.417725
2023-03-08T06:00:59.217Z,84.417725
2023-03-08T06:02:08.895Z,84.417725
2023-03-08T06:03:17.633Z,84.417725
2023-03-08T06:04:27.243Z,85.040283
2023-03-08T06:05:35.956Z,84.625244
2023-03-08T06:06:44.620Z,85.772705
2023-03-08T06:07:54.323Z,84.729004
2023-03-08T06:09:01.988Z,85.72998
2023-03-08T06:10:09.670Z,84.796143
2023-03-08T06:11:19.407Z,84.692383
2023-03-08T06:12:28.070Z,84.484863
2023-03-08T06:13:36.726Z,84.588623
2023-03-08T06:14:45.450Z,84.381104
2023-03-08T06:15:55.205Z,84.588623
2023-03-08T06:17:04.911Z,84.796143
2023-03-08T06:18:13.515Z,85.9375
2023-03-08T06:19:23.192Z,86.419678
2023-03-08T06:20:30.881Z,86.065674
2023-03-08T06:21:38.554Z,84.405518
2023-03-08T06:22:48.222Z,85.510254
2023-03-08T06:23:57.877Z,83.221436
2023-03-08T06:25:06.625Z,83.47168
2023-03-08T06:26:15.285Z,83.47168
2023-03-08T06:27:24.935Z,83.26416
2023-03-08T06:28:34.612Z,83.050537
2023-03-08T06:29:43.288Z,83.575439
2023-03-08T06:30:51.967Z,83.47168
2023-03-08T06:32:02.172Z,83.782959
2023-03-08T06:33:10.300Z,84.094238
2023-03-08T06:34:19.991Z,83.679199
2023-03-08T06:35:29.772Z,83.782959
2023-03-08T06:36:38.364Z,84.265137
2023-03-08T06:37:48.048Z,83.221436
2023-03-08T06:38:56.723Z,82.806396
2023-03-08T06:40:04.387Z,82.806396
2023-03-08T06:41:14.081Z,82.910156
2023-03-08T06:42:34.619Z,83.117676
2023-03-08T06:43:32.733Z,82.806396
2023-03-08T06:44:41.459Z,82.769775
2023-03-08T06:45:51.156Z,82.977295
2023-03-08T06:47:00.793Z,83.288574
2023-03-08T06:48:08.584Z,83.148193
2023-03-08T06:49:17.112Z,82.836914
2023-03-08T06:50:26.833Z,82.318115
2023-03-08T06:51:36.482Z,82.214355
2023-03-08T06:52:46.203Z,81.695557
2023-03-08T06:53:54.898Z,81.799316
2023-03-08T06:55:03.594Z,81.866455
2023-03-08T06:56:13.301Z,81.347656
2023-03-08T06:57:21.968Z,81.658936
2023-03-08T06:58:30.642Z,81.347656
2023-03-08T06:59:40.319Z,81.243896
2023-03-08T07:00:49.064Z,81.243896
2023-03-08T07:01:58.725Z,81.347656
2023-03-08T07:03:08.415Z,81.243896
2023-03-08T07:04:18.390Z,80.932617
2023-03-08T07:05:27.874Z,80.828857
2023-03-08T07:06:36.527Z,80.786133
2023-03-08T07:07:44.198Z,80.682373
2023-03-08T07:08:53.873Z,80.578613
2023-03-08T07:10:03.546Z,80.578613
2023-03-08T07:11:12.242Z,80.371094
2023-03-08T07:12:21.904Z,80.371094
2023-03-08T07:13:30.574Z,80.267334
2023-03-08T07:14:40.258Z,80.059814
2023-03-08T07:15:49.993Z,79.956055
2023-03-08T07:16:58.630Z,80.059814
2023-03-08T07:18:08.308Z,79.650879
2023-03-08T07:19:18.975Z,79.711914
2023-03-08T07:20:28.723Z,80.023193
2023-03-08T07:21:38.355Z,80.023193
2023-03-08T07:22:47.013Z,79.614258
2023-03-08T07:23:56.687Z,79.614258
2023-03-08T07:25:05.337Z,79.614258
2023-03-08T07:26:14.040Z,79.815674
2023-03-08T07:27:22.720Z,79.815674
2023-03-08T07:28:32.444Z,79.711914
2023-03-08T07:29:42.062Z,79.614258
2023-03-08T07:30:50.757Z,79.614258
2023-03-08T07:31:59.462Z,79.711914
2023-03-08T07:33:09.160Z,79.302979
2023-03-08T07:34:17.767Z,79.302979
2023-03-08T07:35:25.504Z,79.266357
2023-03-08T07:36:35.220Z,79.370117
2023-03-08T07:37:43.864Z,79.370117
2023-03-08T07:38:53.558Z,78.955078
2023-03-08T07:40:03.224Z,78.540039
2023-03-08T07:41:11.906Z,78.33252
2023-03-08T07:42:21.634Z,78.643799
2023-03-08T07:43:29.308Z,78.503418
2023-03-08T07:44:38.987Z,78.399658
2023-03-08T07:45:48.679Z,78.088379
2023-03-08T07:46:57.336Z,78.088379
2023-03-08T07:48:06.002Z,77.362061
2023-03-08T07:49:14.701Z,77.362061
2023-03-08T07:50:23.376Z,77.56958
2023-03-08T07:51:33.087Z,77.532959
2023-03-08T07:52:42.756Z,77.429199
2023-03-08T07:53:51.383Z,77.636719
2023-03-08T07:55:01.060Z,77.191162
2023-03-08T07:56:09.762Z,76.983643
2023-03-08T07:57:20.466Z,76.983643
2023-03-08T07:58:28.129Z,77.087402
2023-03-08T07:59:36.795Z,77.288818
2023-03-08T08:00:46.484Z,76.879883
2023-03-08T08:01:54.144Z,76.568604
2023-03-08T08:03:01.871Z,76.464844
2023-03-08T08:04:11.534Z,76.843262
2023-03-08T08:05:20.313Z,76.739502
2023-03-08T08:06:28.912Z,76.428223
2023-03-08T08:07:37.588Z,76.116943
2023-03-08T08:08:47.286Z,75.878906
2023-03-08T08:09:56.938Z,75.878906
2023-03-08T08:11:06.624Z,76.086426
2023-03-08T08:12:16.311Z,75.567627
2023-03-08T08:13:25.011Z,74.945068
2023-03-08T08:14:33.723Z,74.841309
2023-03-08T08:15:43.572Z,74.841309
2023-03-08T08:16:52.215Z,75.115967
2023-03-08T08:18:01.884Z,75.219727
2023-03-08T08:19:11.557Z,74.77417
2023-03-08T08:20:21.238Z,74.151611
2023-03-08T08:21:30.980Z,74.151611
2023-03-08T08:22:39.669Z,74.047852
2023-03-08T08:23:48.338Z,74.121094
2023-03-08T08:24:58.030Z,73.498535
2023-03-08T08:26:06.694Z,73.052979
2023-03-08T08:27:16.364Z,73.052979
2023-03-08T08:28:25.035Z,71.783447
2023-03-08T08:29:33.729Z,71.783447
2023-03-08T08:30:43.379Z,71.54541
2023-03-08T08:31:53.094Z,70.922852
2023-03-08T08:33:01.754Z,70.922852
2023-03-08T08:34:11.469Z,70.819092
2023-03-08T08:35:21.214Z,69.891357
2023-03-08T08:36:31.907Z,70.202637
2023-03-08T08:37:40.549Z,69.891357
2023-03-08T08:38:49.253Z,70.233154
2023-03-08T08:39:58.924Z,69.824219
2023-03-08T08:41:07.636Z,70.233154
2023-03-08T08:42:17.282Z,69.927979
2023-03-08T08:43:26.970Z,69.927979
2023-03-08T08:44:35.625Z,69.720459
2023-03-08T08:45:45.368Z,69.720459
2023-03-08T08:46:54.992Z,70.031738
2023-03-08T08:48:03.635Z,70.233154
2023-03-08T08:49:13.344Z,70.129395
2023-03-08T08:50:23.013Z,70.336914
2023-03-08T08:51:31.711Z,69.927979
2023-03-08T08:52:41.382Z,69.720459
2023-03-08T08:53:50.019Z,69.720459
2023-03-08T08:54:58.672Z,69.995117
2023-03-08T08:56:14.304Z,69.482422
2023-03-08T08:57:18.026Z,69.067383
2023-03-08T08:58:27.668Z,68.762207
2023-03-08T08:59:36.337Z,68.347168
2023-03-08T09:00:45.030Z,68.450928
2023-03-08T09:01:54.686Z,68.554688
2023-03-08T09:03:03.333Z,68.554688
2023-03-08T09:04:12.277Z,68.725586
2023-03-08T09:05:21.847Z,68.725586
2023-03-08T09:06:30.510Z,68.487549
2023-03-08T09:07:41.167Z,68.389893
2023-03-08T09:08:50.884Z,68.798828
2023-03-08T09:10:00.565Z,68.182373
2023-03-08T09:11:10.274Z,68.078613
2023-03-08T09:12:18.992Z,68.591309
2023-03-08T09:13:28.748Z,68.487549
2023-03-08T09:14:38.319Z,69.036865
2023-03-08T09:15:47.974Z,69.549561
2023-03-08T09:16:57.809Z,70.068359
2023-03-08T09:18:06.414Z,70.172119
2023-03-08T09:19:14.084Z,70.581055
2023-03-08T09:20:23.846Z,70.275879
2023-03-08T09:21:32.398Z,70.715332
2023-03-08T09:22:42.093Z,71.026611
2023-03-08T09:23:50.759Z,71.130371
2023-03-08T09:24:59.420Z,71.234131
2023-03-08T09:26:09.099Z,71.337891
2023-03-08T09:27:16.792Z,70.922852
2023-03-08T09:28:24.447Z,71.130371
2023-03-08T09:29:34.145Z,71.130371
2023-03-08T09:30:42.792Z,70.788574
2023-03-08T09:31:52.575Z,70.684814
2023-03-08T09:33:03.197Z,70.788574
2023-03-08T09:34:12.883Z,70.275879
2023-03-08T09:35:21.542Z,70.172119
2023-03-08T09:36:31.211Z,69.9646
2023-03-08T09:37:40.960Z,70.513916
2023-03-08T09:38:50.667Z,70.477295
2023-03-08T09:39:59.345Z,70.477295
2023-03-08T09:41:08.057Z,70.373535
2023-03-08T09:42:17.793Z,70.373535
2023-03-08T09:43:26.467Z,70.373535
2023-03-08T09:44:36.233Z,70.446777
2023-03-08T09:45:45.859Z,69.934082
2023-03-08T09:46:53.656Z,69.726562
2023-03-08T09:48:03.372Z,69.75708
2023-03-08T09:49:13.040Z,70.172119
2023-03-08T09:50:21.766Z,69.65332
2023-03-08T09:51:30.359Z,69.75708
2023-03-08T09:52:39.064Z,70.068359
2023-03-08T09:53:48.722Z,69.622803
2023-03-08T09:54:57.415Z,69.622803
2023-03-08T09:56:07.055Z,69.726562
2023-03-08T09:57:16.797Z,69.488525
2023-03-08T09:58:26.461Z,69.384766
2023-03-08T09:59:36.113Z,69.384766
2023-03-08T10:00:46.943Z,68.768311
2023-03-08T10:01:56.492Z,69.384766
2023-03-08T10:03:06.159Z,69.592285
2023-03-08T10:04:13.844Z,69.073486
2023-03-08T10:05:21.491Z,69.073486
2023-03-08T10:06:31.173Z,68.97583
2023-03-08T10:07:39.887Z,68.835449
2023-03-08T10:08:49.581Z,68.426514
2023-03-08T10:09:58.241Z,68.701172
2023-03-08T10:11:06.949Z,67.980957
2023-03-08T10:12:15.688Z,67.333984
2023-03-08T10:13:25.338Z,67.126465
2023-03-08T10:14:35.014Z,67.230225
2023-03-08T10:15:43.658Z,66.894531
2023-03-08T10:16:52.447Z,66.583252
2023-03-08T10:18:02.049Z,66.790771
2023-03-08T10:19:11.725Z,66.583252
2023-03-08T10:20:20.403Z,67.028809
2023-03-08T10:21:30.090Z,66.61377
2023-03-08T10:22:38.769Z,67.028809
2023-03-08T10:23:48.451Z,67.333984
2023-03-08T10:24:57.117Z,67.675781
2023-03-08T10:26:04.768Z,67.980957
2023-03-08T10:27:14.490Z,68.499756
2023-03-08T10:28:23.147Z,68.774414
2023-03-08T10:29:32.825Z,68.670654
2023-03-08T10:30:42.520Z,68.566895
2023-03-08T10:31:51.155Z,68.566895
2023-03-08T10:33:00.886Z,68.566895
2023-03-08T10:34:09.526Z,68.365479
2023-03-08T10:35:18.199Z,68.127441
2023-03-08T10:36:27.867Z,68.231201
2023-03-08T10:37:37.675Z,67.816162
2023-03-08T10:38:47.286Z,67.889404
2023-03-08T10:39:55.947Z,67.785645
2023-03-08T10:41:05.610Z,67.169189
2023-03-08T10:42:15.310Z,66.864014
2023-03-08T10:43:23.964Z,66.894531
2023-03-08T10:44:33.617Z,67.199707
2023-03-08T10:45:43.278Z,67.816162
2023-03-08T10:46:52.966Z,67.816162
2023-03-08T10:48:02.666Z,67.095947
2023-03-08T10:49:12.308Z,66.656494
2023-03-08T10:50:21.994Z,66.448975
2023-03-08T10:51:32.393Z,66.247559
2023-03-08T10:52:41.065Z,65.863037
2023-03-08T10:53:49.744Z,66.070557
2023-03-08T10:54:59.432Z,67.407227
2023-03-08T10:56:08.070Z,67.126465
2023-03-08T10:57:15.693Z,70.727539
2023-03-08T10:58:24.383Z,71.343994
2023-03-08T10:59:33.075Z,71.856689
2023-03-08T11:00:42.741Z,74.42627
2023-03-08T11:01:50.486Z,75.183105
2023-03-08T11:02:58.165Z,73.4375
2023-03-08T11:04:07.878Z,73.846436
2023-03-08T11:05:17.518Z,74.67041
2023-03-08T11:06:27.272Z,74.603271
2023-03-08T11:07:36.953Z,75.628662
2023-03-08T11:08:46.631Z,76.556396
2023-03-08T11:09:56.304Z,75.799561
2023-03-08T11:11:04.980Z,75.732422
2023-03-08T11:12:13.729Z,77.581787
2023-03-08T11:13:23.384Z,78.405762
2023-03-08T11:14:32.076Z,76.177979
2023-03-08T11:15:40.695Z,78.033447
2023-03-08T11:16:50.341Z,76.177979
2023-03-08T11:17:59.056Z,77.105713
2023-03-08T11:19:08.781Z,78.137207
2023-03-08T11:20:16.450Z,78.479004
2023-03-08T11:21:25.042Z,78.790283
2023-03-08T11:22:34.731Z,78.894043
2023-03-08T11:23:44.445Z,77.966309
2023-03-08T11:24:54.118Z,78.277588
2023-03-08T11:26:02.794Z,77.453613
2023-03-08T11:27:11.518Z,78.173828
2023-03-08T11:28:21.197Z,79.199219
2023-03-08T11:29:28.862Z,77.966309
2023-03-08T11:30:37.534Z,77.966309
2023-03-08T11:31:47.212Z,77.758789
2023-03-08T11:32:57.039Z,78.686523
2023-03-08T11:34:06.609Z,78.308105
2023-03-08T11:35:16.243Z,79.547119
2023-03-08T11:36:25.953Z,79.962158
2023-03-08T11:37:35.598Z,80.059814
2023-03-08T11:38:44.278Z,80.163574
2023-03-08T11:39:52.923Z,81.915283
2023-03-08T11:41:02.602Z,82.843018
2023-03-08T11:42:12.594Z,82.122803
2023-03-08T11:43:20.972Z,79.962158
2023-03-08T11:44:29.644Z,79.199219
2023-03-08T11:45:38.312Z,79.821777
2023-03-08T11:46:48.004Z,80.023193
2023-03-08T11:47:56.664Z,77.758789
2023-03-08T11:49:05.389Z,78.753662
2023-03-08T11:50:15.129Z,78.240967
2023-03-08T11:51:23.695Z,77.618408
2023-03-08T11:52:32.391Z,77.825928
2023-03-08T11:53:43.826Z,78.137207
2023-03-08T11:54:51.742Z,77.825928
2023-03-08T11:56:01.386Z,77.209473
2023-03-08T11:57:10.063Z,77.685547
2023-03-08T11:58:18.859Z,77.685547
2023-03-08T11:59:28.548Z,77.893066
2023-03-08T12:00:37.220Z,77.172852
2023-03-08T12:01:45.893Z,77.996826
2023-03-08T12:02:55.541Z,77.996826
2023-03-08T12:04:05.337Z,78.100586
2023-03-08T12:05:14.985Z,78.509521
2023-03-08T12:06:28.979Z,78.369141
2023-03-08T12:07:34.272Z,78.4729
2023-03-08T12:08:42.886Z,78.78418
2023-03-08T12:09:51.571Z,78.887939
2023-03-08T12:11:02.184Z,79.193115
2023-03-08T12:12:10.857Z,79.400635
2023-03-08T12:13:19.561Z,79.608154
2023-03-08T12:14:29.206Z,80.01709
2023-03-08T12:15:38.952Z,80.426025
2023-03-08T12:16:48.732Z,80.01709
2023-03-08T12:17:58.235Z,79.91333
2023-03-08T12:19:05.910Z,80.084229
2023-03-08T12:20:15.685Z,79.571533
2023-03-08T12:21:24.266Z,79.052734
2023-03-08T12:22:32.971Z,78.540039
2023-03-08T12:23:42.717Z,79.052734
2023-03-08T12:24:52.420Z,78.851318
2023-03-08T12:26:02.070Z,79.119873
2023-03-08T12:27:11.755Z,78.918457
2023-03-08T12:28:20.626Z,78.607178
2023-03-08T12:29:30.225Z,78.198242
2023-03-08T12:30:38.898Z,78.503418
2023-03-08T12:31:47.650Z,78.057861
2023-03-08T12:32:56.640Z,76.928711
2023-03-08T12:34:06.002Z,77.130127
2023-03-08T12:35:16.673Z,77.441406
2023-03-08T12:36:24.473Z,76.78833
2023-03-08T12:37:33.142Z,76.89209
2023-03-08T12:38:42.775Z,76.171875
2023-03-08T12:39:51.481Z,75.762939
2023-03-08T12:41:01.093Z,75.622559
2023-03-08T12:42:10.754Z,75.726318
2023-03-08T12:43:20.416Z,75.177002
2023-03-08T12:44:30.160Z,74.664307
2023-03-08T12:45:38.906Z,74.56665
2023-03-08T12:47:01.656Z,74.017334
2023-03-08T12:48:00.151Z,73.706055
2023-03-08T12:49:09.779Z,73.608398
2023-03-08T12:50:19.480Z,73.297119
2023-03-08T12:51:29.187Z,73.504639
2023-03-08T12:52:37.916Z,73.297119
2023-03-08T12:53:47.605Z,73.193359
2023-03-08T12:54:56.277Z,73.504639
2023-03-08T12:56:06.044Z,73.504639
2023-03-08T12:57:15.676Z,73.608398
2023-03-08T12:58:25.396Z,73.706055
2023-03-08T12:59:35.197Z,74.188232
2023-03-08T13:00:42.966Z,73.980713
2023-03-08T13:01:51.557Z,74.188232
2023-03-08T13:03:02.249Z,74.188232
2023-03-08T13:04:09.999Z,73.779297
2023-03-08T13:05:18.624Z,73.779297
2023-03-08T13:06:28.323Z,73.980713
2023-03-08T13:07:37.028Z,73.571777
2023-03-08T13:08:45.697Z,73.162842
2023-03-08T13:09:55.416Z,73.468018
2023-03-08T13:11:05.089Z,73.22998
2023-03-08T13:12:14.769Z,73.4375
2023-03-08T13:13:37.348Z,73.33374
2023-03-08T13:14:34.078Z,72.924805